createdAt,value
2023-05-10T00:02:16.184Z,100
2023-05-10T00:07:14.516Z,100
2023-05-10T00:12:12.557Z,100
2023-05-10T00:17:10.671Z,100
2023-05-10T00:22:12.296Z,100
2023-05-10T00:27:09.732Z,100
2023-05-10T00:32:07.814Z,100
2023-05-10T00:37:05.536Z,100
2023-05-10T00:42:03.585Z,100
2023-05-10T00:47:01.343Z,100
2023-05-10T00:51:59.143Z,100
2023-05-10T00:56:57.208Z,100
2023-05-10T01:01:55.615Z,100
2023-05-10T01:06:54.190Z,100
2023-05-10T01:11:51.932Z,100
2023-05-10T01:16:50.023Z,100
2023-05-10T01:21:48.310Z,100
2023-05-10T01:26:46.550Z,100
2023-05-10T01:31:45.471Z,100
2023-05-10T01:36:43.365Z,100
2023-05-10T01:41:41.171Z,100
2023-05-10T01:46:39.181Z,100
2023-05-10T01:51:37.154Z,100
2023-05-10T01:56:35.040Z,100
2023-05-10T02:01:33.004Z,100
2023-05-10T02:06:30.953Z,100
2023-05-10T02:11:28.990Z,100
2023-05-10T02:16:27.020Z,100
2023-05-10T02:21:24.947Z,100
2023-05-10T02:26:22.882Z,100
2023-05-10T02:31:20.799Z,100
2023-05-10T02:36:18.685Z,100
2023-05-10T02:41:16.492Z,100
2023-05-10T02:46:14.473Z,100
2023-05-10T02:51:12.428Z,100
2023-05-10T02:56:10.437Z,100
2023-05-10T03:01:08.354Z,100
2023-05-10T03:06:06.399Z,100
2023-05-10T03:11:04.479Z,100
2023-05-10T03:16:02.533Z,100
2023-05-10T03:21:00.861Z,100
2023-05-10T03:26:03.072Z,100
2023-05-10T03:31:00.520Z,100
2023-05-10T03:35:58.626Z,100
2023-05-10T03:40:57.185Z,100
2023-05-10T03:45:55.064Z,100
2023-05-10T03:50:53.046Z,100
2023-05-10T03:55:51.130Z,100
2023-05-10T04:00:52.787Z,100
2023-05-10T04:05:50.424Z,100
2023-05-10T04:10:48.806Z,100
2023-05-10T04:15:47.132Z,100
2023-05-10T04:20:45.377Z,100
2023-05-10T04:25:43.611Z,100
2023-05-10T04:30:41.543Z,100
2023-05-10T04:35:39.240Z,100
2023-05-10T04:40:37.673Z,100
2023-05-10T04:45:36.277Z,100
2023-05-10T04:50:34.692Z,100
2023-05-10T04:55:32.877Z,100
2023-05-10T05:00:31.244Z,100
2023-05-10T05:05:29.948Z,100
2023-05-10T05:10:28.199Z,100
2023-05-10T05:15:26.941Z,100
2023-05-10T05:20:25.321Z,100
2023-05-10T05:25:23.081Z,100
2023-05-10T05:30:21.295Z,100
2023-05-10T05:35:20.065Z,100
2023-05-10T05:40:18.829Z,100
2023-05-10T05:45:17.266Z,100
2023-05-10T05:50:14.731Z,100
2023-05-10T05:55:12.845Z,100
2023-05-10T06:00:11.055Z,100
2023-05-10T06:05:09.042Z,100
2023-05-10T06:10:07.378Z,100
2023-05-10T06:15:05.916Z,100
2023-05-10T06:20:03.766Z,100
2023-05-10T06:25:01.714Z,100
2023-05-10T06:30:09.501Z,100
2023-05-10T06:34:57.842Z,100
2023-05-10T06:39:55.992Z,100
2023-05-10T06:44:54.383Z,100
2023-05-10T06:49:52.449Z,100
2023-05-10T06:54:51.059Z,100
2023-05-10T06:59:49.791Z,100
2023-05-10T07:04:48.091Z,100
2023-05-10T07:09:45.949Z,100
2023-05-10T07:14:44.738Z,100
2023-05-10T07:19:43.712Z,100
2023-05-10T07:24:41.939Z,100
2023-05-10T07:29:39.664Z,100
2023-05-10T07:34:37.800Z,100
2023-05-10T07:39:35.667Z,100
2023-05-10T07:44:34.053Z,100
2023-05-10T07:49:31.713Z,100
2023-05-10T07:54:29.912Z,100
2023-05-10T07:59:28.160Z,100
2023-05-10T08:04:27.377Z,100
2023-05-10T08:09:25.778Z,100
2023-05-10T08:14:25.010Z,100
2023-05-10T08:19:23.605Z,100
2023-05-10T08:24:22.154Z,100
2023-05-10T08:29:20.044Z,100
2023-05-10T08:34:18.276Z,100
2023-05-10T08:39:29.658Z,100
2023-05-10T08:44:17.454Z,100
2023-05-10T08:49:14.956Z,100
2023-05-10T08:54:13.766Z,100
2023-05-10T08:59:12.699Z,100
2023-05-10T09:04:12.805Z,100
2023-05-10T09:09:11.444Z,100
2023-05-10T09:14:09.516Z,100
2023-05-10T09:19:07.813Z,100
2023-05-10T09:24:06.537Z,89.5
2023-05-10T09:29:05.392Z,81.2
2023-05-10T09:34:03.392Z,80
2023-05-10T09:39:00.836Z,86.6
2023-05-10T09:43:59.237Z,85.3
2023-05-10T09:48:57.172Z,85.2
2023-05-10T09:53:54.523Z,96.5
2023-05-10T09:58:52.498Z,93.7
2023-05-10T10:03:50.611Z,100
2023-05-10T10:08:49.219Z,92.4
2023-05-10T10:13:46.902Z,100
2023-05-10T10:18:44.618Z,100
2023-05-10T10:23:43.139Z,100
2023-05-10T10:28:41.666Z,95.8
2023-05-10T10:33:41.794Z,80.3
2023-05-10T10:38:40.707Z,73.9
2023-05-10T10:43:40.211Z,65
2023-05-10T10:48:39.190Z,65.9
2023-05-10T10:53:37.616Z,62.4
2023-05-10T10:58:35.718Z,62.6
2023-05-10T11:03:33.531Z,66.9
2023-05-10T11:08:31.940Z,68.1
2023-05-10T11:13:29.969Z,68
2023-05-10T11:18:28.122Z,67.5
2023-05-10T11:23:27.091Z,64
2023-05-10T11:28:25.260Z,62.7
2023-05-10T11:33:23.534Z,59.6
2023-05-10T11:38:22.189Z,57.8
2023-05-10T11:43:21.393Z,54.4
2023-05-10T11:48:19.176Z,53.9
2023-05-10T11:53:16.050Z,63
2023-05-10T11:58:12.810Z,69.4
2023-05-10T12:03:11.480Z,62.9
2023-05-10T12:08:10.874Z,63.9
2023-05-10T12:13:08.432Z,68.2
2023-05-10T12:18:05.185Z,73.5
2023-05-10T12:23:03.191Z,72.3
2023-05-10T12:28:02.590Z,72
2023-05-10T12:33:01.258Z,67.5
2023-05-10T12:37:58.258Z,71.3
2023-05-10T12:42:57.966Z,64
2023-05-10T12:47:55.158Z,65.7
2023-05-10T12:52:53.444Z,73.7
2023-05-10T12:57:51.087Z,78.2
2023-05-10T13:02:48.742Z,77
2023-05-10T13:07:47.077Z,83.6
2023-05-10T13:12:44.875Z,87
2023-05-10T13:17:43.745Z,85.1
2023-05-10T13:22:42.289Z,83.3
2023-05-10T13:27:39.513Z,85.1
2023-05-10T13:32:37.260Z,88.2
2023-05-10T13:37:34.803Z,92.8
2023-05-10T13:42:33.055Z,91.2
2023-05-10T13:47:31.201Z,92.7
2023-05-10T13:52:29.812Z,81.9
2023-05-10T13:57:28.868Z,83.3
2023-05-10T14:02:26.350Z,86.5
2023-05-10T14:07:23.667Z,94.1
2023-05-10T14:12:21.954Z,95.8
2023-05-10T14:17:18.469Z,100
2023-05-10T14:22:15.852Z,100
2023-05-10T14:27:14.387Z,100
2023-05-10T14:32:12.416Z,100
2023-05-10T14:37:10.097Z,100
2023-05-10T14:42:07.429Z,100
2023-05-10T14:47:04.972Z,100
2023-05-10T14:57:09.616Z,100
2023-05-10T15:02:08.358Z,100
2023-05-10T15:07:06.260Z,100
2023-05-10T15:12:03.947Z,100
2023-05-10T15:17:01.991Z,100
2023-05-10T15:22:01.157Z,100
2023-05-10T15:26:59.399Z,100
2023-05-10T15:31:57.631Z,100
2023-05-10T15:36:56.652Z,100
2023-05-10T15:41:54.798Z,100
2023-05-10T15:46:52.952Z,100
2023-05-10T15:51:50.798Z,100
2023-05-10T15:56:49.118Z,100
2023-05-10T16:01:46.880Z,100
2023-05-10T16:06:44.937Z,100
2023-05-10T16:11:42.891Z,100
2023-05-10T16:16:41.129Z,100
2023-05-10T16:21:39.420Z,100
2023-05-10T16:26:37.823Z,100
2023-05-10T16:31:36.264Z,100
2023-05-10T16:36:34.295Z,100
2023-05-10T16:41:31.971Z,100
2023-05-10T16:46:30.413Z,100
2023-05-10T16:51:28.417Z,100
2023-05-10T16:56:26.542Z,100
2023-05-10T17:01:26.630Z,100
2023-05-10T17:06:22.178Z,100
2023-05-10T17:11:20.593Z,100
2023-05-10T17:16:18.784Z,100
2023-05-10T17:21:16.921Z,100
2023-05-10T17:26:14.902Z,100
2023-05-10T17:31:12.831Z,100
2023-05-10T17:36:11.040Z,100
2023-05-10T17:41:09.182Z,100
2023-05-10T17:46:07.090Z,100
2023-05-10T17:51:05.378Z,100
2023-05-10T17:56:03.540Z,100
2023-05-10T18:01:01.940Z,100
2023-05-10T18:06:00.314Z,100
2023-05-10T18:10:58.873Z,100
2023-05-10T18:15:57.004Z,100
2023-05-10T18:20:55.371Z,100
2023-05-10T18:25:53.563Z,100
2023-05-10T18:30:52.019Z,100
2023-05-10T18:35:50.567Z,100
2023-05-10T18:40:48.807Z,100
2023-05-10T18:45:46.802Z,100
2023-05-10T18:50:44.951Z,100
2023-05-10T18:55:44.259Z,100
2023-05-10T19:00:41.456Z,100
2023-05-10T19:05:39.589Z,100
2023-05-10T19:10:37.640Z,100
2023-05-10T19:15:36.494Z,100
2023-05-10T19:20:36.583Z,100
2023-05-10T19:25:34.305Z,100
2023-05-10T19:30:32.233Z,100
2023-05-10T19:35:30.497Z,100
2023-05-10T19:40:28.856Z,100
2023-05-10T19:45:27.196Z,100
2023-05-10T19:50:25.345Z,100
2023-05-10T19:55:23.753Z,100
2023-05-10T20:00:22.038Z,100
2023-05-10T20:05:20.130Z,100
2023-05-10T20:10:18.169Z,100
2023-05-10T20:15:16.423Z,100
2023-05-10T20:20:15.123Z,100
2023-05-10T20:25:13.227Z,100
2023-05-10T20:30:11.575Z,100
2023-05-10T20:35:09.628Z,100
2023-05-10T20:40:07.895Z,100
2023-05-10T20:45:06.684Z,100
2023-05-10T20:50:05.001Z,100
2023-05-10T20:55:03.170Z,100
2023-05-10T21:00:01.483Z,100
2023-05-10T21:04:59.697Z,100
2023-05-10T21:09:57.739Z,100
2023-05-10T21:14:55.832Z,100
2023-05-10T21:19:53.951Z,100
2023-05-10T21:24:52.375Z,100
2023-05-10T21:29:50.829Z,100
2023-05-10T21:34:48.783Z,100
2023-05-10T21:39:46.849Z,100
2023-05-10T21:44:44.784Z,100
2023-05-10T21:49:42.909Z,100
2023-05-10T21:54:42.122Z,100
2023-05-10T21:59:40.208Z,100
2023-05-10T22:04:38.351Z,100
2023-05-10T22:09:36.812Z,100
2023-05-10T22:14:35.286Z,100
2023-05-10T22:19:33.362Z,100
2023-05-10T22:24:31.401Z,100
2023-05-10T22:29:30.786Z,100
2023-05-10T22:34:28.603Z,100
2023-05-10T22:39:26.618Z,100
2023-05-10T22:44:24.703Z,100
2023-05-10T22:49:22.812Z,100
2023-05-10T22:54:21.191Z,100
2023-05-10T22:59:19.554Z,100
2023-05-10T23:04:17.752Z,100
2023-05-10T23:09:15.798Z,100
2023-05-10T23:14:13.930Z,100
2023-05-10T23:19:12.035Z,100
2023-05-10T23:24:09.850Z,100
2023-05-10T23:29:08.075Z,100
2023-05-10T23:34:10.349Z,100
2023-05-10T23:39:07.670Z,100
2023-05-10T23:44:05.844Z,100
2023-05-10T23:49:04.151Z,100
2023-05-10T23:54:02.766Z,100
2023-05-10T23:59:00.783Z,100
